createdAt,value
2023-01-22T00:01:12.440Z,79.54
2023-01-22T00:03:41.022Z,79.30
2023-01-22T00:06:08.971Z,79.90
2023-01-22T00:08:36.099Z,79.97
2023-01-22T00:11:04.004Z,79.88
2023-01-22T00:13:30.674Z,80.02
2023-01-22T00:15:58.660Z,80.01
2023-01-22T00:18:29.194Z,79.93
2023-01-22T00:20:57.309Z,79.60
2023-01-22T00:23:25.055Z,79.21
2023-01-22T00:26:01.578Z,79.72
2023-01-22T00:28:28.481Z,79.72
2023-01-22T00:31:00.575Z,79.72
2023-01-22T00:33:28.557Z,79.21
2023-01-22T00:35:55.893Z,78.90
2023-01-22T00:38:22.701Z,79.66
2023-01-22T00:40:49.347Z,79.31
2023-01-22T00:43:16.140Z,79.76
2023-01-22T00:45:42.835Z,79.66
2023-01-22T00:48:09.563Z,79.33
2023-01-22T00:50:36.363Z,79.76
2023-01-22T00:53:04.072Z,79.65
2023-01-22T00:55:31.066Z,79.75
2023-01-22T00:57:57.753Z,79.56
2023-01-22T01:00:24.542Z,79.70
2023-01-22T01:03:09.861Z,79.42
2023-01-22T01:05:36.890Z,79.62
2023-01-22T01:08:03.829Z,79.56
2023-01-22T01:10:30.657Z,79.00
2023-01-22T01:12:58.695Z,79.63
2023-01-22T01:15:25.531Z,79.79
2023-01-22T01:17:52.247Z,79.26
2023-01-22T01:20:19.491Z,79.93
2023-01-22T01:22:46.368Z,79.36
2023-01-22T01:25:13.021Z,79.78
2023-01-22T01:27:41.984Z,79.65
2023-01-22T01:30:09.386Z,80.02
2023-01-22T01:32:36.041Z,79.83
2023-01-22T01:35:02.827Z,80.00
2023-01-22T01:37:30.518Z,79.45
2023-01-22T01:39:57.785Z,79.40
2023-01-22T01:42:32.701Z,79.85
2023-01-22T01:45:34.388Z,79.58
2023-01-22T01:48:16.321Z,79.48
2023-01-22T01:50:48.366Z,79.60
2023-01-22T01:53:15.175Z,79.46
2023-01-22T01:55:42.311Z,79.00
2023-01-22T01:58:14.559Z,79.38
2023-01-22T02:00:44.288Z,79.25
2023-01-22T02:03:11.769Z,78.58
2023-01-22T02:05:39.612Z,79.07
2023-01-22T02:08:08.200Z,79.12
2023-01-22T02:10:36.666Z,79.22
2023-01-22T02:13:08.800Z,79.33
2023-01-22T02:15:38.231Z,79.55
2023-01-22T02:18:05.042Z,79.64
2023-01-22T02:20:37.066Z,79.28
2023-01-22T02:23:04.557Z,79.46
2023-01-22T02:25:33.902Z,79.33
2023-01-22T02:28:01.289Z,79.55
2023-01-22T02:30:28.427Z,79.46
2023-01-22T02:32:56.296Z,79.40
2023-01-22T02:35:23.954Z,79.26
2023-01-22T02:37:50.698Z,79.51
2023-01-22T02:40:17.991Z,79.55
2023-01-22T02:42:45.209Z,79.64
2023-01-22T02:45:12.093Z,79.33
2023-01-22T02:47:38.844Z,79.62
2023-01-22T02:50:06.988Z,79.74
2023-01-22T02:52:33.968Z,79.74
2023-01-22T02:55:00.786Z,79.57
2023-01-22T02:57:31.103Z,79.52
2023-01-22T02:59:58.403Z,79.54
2023-01-22T03:02:26.215Z,79.11
2023-01-22T03:05:03.154Z,79.47
2023-01-22T03:07:42.142Z,79.80
2023-01-22T03:10:12.563Z,79.54
2023-01-22T03:12:59.325Z,79.80
2023-01-22T03:15:44.983Z,79.65
2023-01-22T03:18:31.073Z,80.15
2023-01-22T03:21:16.615Z,79.86
2023-01-22T03:23:46.046Z,79.40
2023-01-22T03:26:14.436Z,78.92
2023-01-22T03:28:41.794Z,79.33
2023-01-22T03:31:09.513Z,78.79
2023-01-22T03:33:36.297Z,78.97
2023-01-22T03:36:10.409Z,79.53
2023-01-22T03:38:39.814Z,79.58
2023-01-22T03:41:15.414Z,80.13
2023-01-22T03:43:44.612Z,79.38
2023-01-22T03:46:17.268Z,79.93
2023-01-22T03:48:50.372Z,79.43
2023-01-22T03:51:17.658Z,79.26
2023-01-22T03:53:45.576Z,78.59
2023-01-22T03:56:21.459Z,79.56
2023-01-22T03:58:49.842Z,79.39
2023-01-22T04:01:19.791Z,79.41
2023-01-22T04:03:46.975Z,79.58
2023-01-22T04:06:14.229Z,78.77
2023-01-22T04:08:43.621Z,79.18
2023-01-22T04:11:14.183Z,79.01
2023-01-22T04:13:42.766Z,79.03
2023-01-22T04:16:11.790Z,78.69
2023-01-22T04:19:04.926Z,79.03
2023-01-22T04:21:49.079Z,79.17
2023-01-22T04:24:16.201Z,78.63
2023-01-22T04:26:42.874Z,79.46
2023-01-22T04:29:11.520Z,79.33
2023-01-22T04:31:41.447Z,79.18
2023-01-22T04:34:26.896Z,79.00
2023-01-22T04:37:10.605Z,79.38
2023-01-22T04:39:37.813Z,79.18
2023-01-22T04:42:04.606Z,78.88
2023-01-22T04:44:32.428Z,78.98
2023-01-22T04:46:59.098Z,79.20
2023-01-22T04:49:25.783Z,78.85
2023-01-22T04:51:54.158Z,78.98
2023-01-22T04:54:20.882Z,78.71
2023-01-22T04:56:47.863Z,78.81
2023-01-22T04:59:14.650Z,79.02
2023-01-22T05:01:42.272Z,79.05
2023-01-22T05:04:08.964Z,79.47
2023-01-22T05:06:35.911Z,79.35
2023-01-22T05:09:03.731Z,79.30
2023-01-22T05:11:38.901Z,80.01
2023-01-22T05:14:06.540Z,80.00
2023-01-22T05:16:33.359Z,79.91
2023-01-22T05:18:59.942Z,80.04
2023-01-22T05:21:27.342Z,79.41
2023-01-22T05:23:54.227Z,79.44
2023-01-22T05:26:22.762Z,79.38
2023-01-22T05:28:57.257Z,79.72
2023-01-22T05:31:44.234Z,79.14
2023-01-22T05:34:29.816Z,79.60
2023-01-22T05:36:57.043Z,79.12
2023-01-22T05:39:25.966Z,78.91
2023-01-22T05:41:54.821Z,79.45
2023-01-22T05:44:21.645Z,79.21
2023-01-22T05:46:52.108Z,79.17
2023-01-22T05:49:37.372Z,79.02
2023-01-22T05:52:05.622Z,79.27
2023-01-22T05:54:33.274Z,79.24
2023-01-22T05:57:00.086Z,79.49
2023-01-22T05:59:28.605Z,78.80
2023-01-22T06:01:59.760Z,78.47
2023-01-22T06:04:26.689Z,78.97
2023-01-22T06:06:53.435Z,78.90
2023-01-22T06:09:22.680Z,78.78
2023-01-22T06:11:50.106Z,78.73
2023-01-22T06:14:16.960Z,78.86
2023-01-22T06:16:43.978Z,79.02
2023-01-22T06:19:34.369Z,78.91
2023-01-22T06:22:01.039Z,78.57
2023-01-22T06:24:35.672Z,78.49
2023-01-22T06:27:03.534Z,78.65
2023-01-22T06:29:40.157Z,78.39
2023-01-22T06:32:07.364Z,78.79
2023-01-22T06:34:34.156Z,78.18
2023-01-22T06:37:02.571Z,78.49
2023-01-22T06:39:32.501Z,78.34
2023-01-22T06:42:04.599Z,78.70
2023-01-22T06:44:31.378Z,78.72
2023-01-22T06:46:58.276Z,78.70
2023-01-22T06:49:26.997Z,78.87
2023-01-22T06:51:54.605Z,78.44
2023-01-22T06:54:21.408Z,78.01
2023-01-22T06:56:48.103Z,77.92
2023-01-22T06:59:15.162Z,78.68
2023-01-22T07:01:42.253Z,78.27
2023-01-22T07:04:09.074Z,78.16
2023-01-22T07:06:35.787Z,77.85
2023-01-22T07:09:02.494Z,77.75
2023-01-22T07:11:29.153Z,77.98
2023-01-22T07:13:55.851Z,77.57
2023-01-22T07:16:22.649Z,77.30
2023-01-22T07:18:49.340Z,77.65
2023-01-22T07:21:15.942Z,78.05
2023-01-22T07:23:42.687Z,77.61
2023-01-22T07:26:09.432Z,77.44
2023-01-22T07:28:36.181Z,77.23
2023-01-22T07:31:03.761Z,77.31
2023-01-22T07:33:30.724Z,77.02
2023-01-22T07:35:57.528Z,77.28
2023-01-22T07:38:27.389Z,77.43
2023-01-22T07:40:55.574Z,77.67
2023-01-22T07:43:22.328Z,77.31
2023-01-22T07:45:49.117Z,77.39
2023-01-22T07:48:15.921Z,77.56
2023-01-22T07:50:42.602Z,77.04
2023-01-22T07:53:11.663Z,77.20
2023-01-22T07:55:38.888Z,77.51
2023-01-22T07:58:06.896Z,77.58
2023-01-22T08:00:35.365Z,77.78
2023-01-22T08:03:06.863Z,76.90
2023-01-22T08:05:36.647Z,77.25
2023-01-22T08:08:07.080Z,77.26
2023-01-22T08:10:33.767Z,77.31
2023-01-22T08:13:01.491Z,77.13
2023-01-22T08:15:28.232Z,77.14
2023-01-22T08:17:55.787Z,77.18
2023-01-22T08:20:26.365Z,77.22
2023-01-22T08:23:00.686Z,76.65
2023-01-22T08:25:28.621Z,76.54
2023-01-22T08:27:55.682Z,76.73
2023-01-22T08:30:22.825Z,77.06
2023-01-22T08:32:51.149Z,76.66
2023-01-22T08:35:17.956Z,76.77
2023-01-22T08:37:44.628Z,77.28
2023-01-22T08:40:12.053Z,76.97
2023-01-22T08:42:38.759Z,77.01
2023-01-22T08:45:06.045Z,76.77
2023-01-22T08:47:32.935Z,76.93
2023-01-22T08:50:01.915Z,77.11
2023-01-22T08:52:29.198Z,76.74
2023-01-22T08:55:09.137Z,76.52
2023-01-22T08:57:38.044Z,76.54
2023-01-22T09:00:06.517Z,76.49
2023-01-22T09:02:33.669Z,76.78
2023-01-22T09:05:03.806Z,77.21
2023-01-22T09:07:30.690Z,77.24
2023-01-22T09:09:57.767Z,76.33
2023-01-22T09:12:24.642Z,76.38
2023-01-22T09:14:51.580Z,75.87
2023-01-22T09:17:18.591Z,75.89
2023-01-22T09:19:45.536Z,75.86
2023-01-22T09:22:12.368Z,75.75
2023-01-22T09:24:39.179Z,75.99
2023-01-22T09:27:05.975Z,76.15
2023-01-22T09:29:32.651Z,76.15
2023-01-22T09:31:59.666Z,76.13
2023-01-22T09:34:26.389Z,75.95
2023-01-22T09:36:53.137Z,75.48
2023-01-22T09:39:19.882Z,75.51
2023-01-22T09:41:52.308Z,75.41
2023-01-22T09:44:21.812Z,75.23
2023-01-22T09:47:12.063Z,75.43
2023-01-22T09:49:57.062Z,75.03
2023-01-22T09:52:28.608Z,75.56
2023-01-22T09:54:56.051Z,75.54
2023-01-22T09:57:31.126Z,75.36
2023-01-22T09:59:59.096Z,74.80
2023-01-22T10:02:34.804Z,74.92
2023-01-22T10:05:30.819Z,74.68
2023-01-22T10:08:05.750Z,75.29
2023-01-22T10:10:33.088Z,74.51
2023-01-22T10:13:13.948Z,74.60
2023-01-22T10:15:40.904Z,74.92
2023-01-22T10:18:46.218Z,74.18
2023-01-22T10:21:19.989Z,74.90
2023-01-22T10:23:48.893Z,73.94
2023-01-22T10:26:19.045Z,74.02
2023-01-22T10:28:51.123Z,74.25
2023-01-22T10:31:31.231Z,74.62
2023-01-22T10:34:04.160Z,74.02
2023-01-22T10:36:31.660Z,73.49
2023-01-22T10:39:14.183Z,73.74
2023-01-22T10:41:42.435Z,73.91
2023-01-22T10:44:16.302Z,73.90
2023-01-22T10:46:43.514Z,74.08
2023-01-22T10:49:18.660Z,73.71
2023-01-22T10:51:52.052Z,73.80
2023-01-22T10:54:41.551Z,73.73
2023-01-22T10:57:34.332Z,73.94
2023-01-22T11:00:06.388Z,73.87
2023-01-22T11:02:35.990Z,73.50
2023-01-22T11:05:21.347Z,73.87
2023-01-22T11:08:02.103Z,73.53
2023-01-22T11:10:46.377Z,74.16
2023-01-22T11:13:16.470Z,73.61
2023-01-22T11:15:47.776Z,73.38
2023-01-22T11:18:42.699Z,73.41
2023-01-22T11:21:41.258Z,73.92
2023-01-22T11:24:19.966Z,73.57
2023-01-22T11:26:55.883Z,74.11
2023-01-22T11:29:32.579Z,73.89
2023-01-22T11:32:11.511Z,73.78
2023-01-22T11:34:50.338Z,74.07
2023-01-22T11:37:42.294Z,74.09
2023-01-22T11:40:30.720Z,73.69
2023-01-22T11:43:38.507Z,73.25
2023-01-22T11:46:26.136Z,73.29
2023-01-22T11:49:19.464Z,73.38
2023-01-22T11:52:02.040Z,73.50
2023-01-22T11:54:39.518Z,73.28
2023-01-22T11:57:15.895Z,73.65
2023-01-22T12:00:17.300Z,73.61
2023-01-22T12:02:55.397Z,74.37
2023-01-22T12:05:36.401Z,74.22
2023-01-22T12:08:17.502Z,73.79
2023-01-22T12:11:11.629Z,73.58
2023-01-22T12:13:50.277Z,73.82
2023-01-22T12:16:44.188Z,73.54
2023-01-22T12:19:32.357Z,73.95
2023-01-22T12:22:20.819Z,74.12
2023-01-22T12:24:57.604Z,74.07
2023-01-22T12:27:30.225Z,73.74
2023-01-22T12:30:20.562Z,74.39
2023-01-22T12:32:54.929Z,74.21
2023-01-22T12:35:23.205Z,74.34
2023-01-22T12:38:07.357Z,74.76
2023-01-22T12:41:15.181Z,74.40
2023-01-22T12:43:50.735Z,74.50
2023-01-22T12:46:29.213Z,74.84
2023-01-22T12:49:09.137Z,74.88
2023-01-22T12:51:50.790Z,74.37
2023-01-22T12:54:28.714Z,74.33
2023-01-22T12:57:17.251Z,74.20
2023-01-22T12:59:48.846Z,74.29
2023-01-22T13:02:36.097Z,74.88
2023-01-22T13:05:18.902Z,74.47
2023-01-22T13:07:46.007Z,74.45
2023-01-22T13:10:52.121Z,74.71
2023-01-22T13:13:33.969Z,74.73
2023-01-22T13:16:07.588Z,74.48
2023-01-22T13:18:42.080Z,74.89
2023-01-22T13:21:11.453Z,75.05
2023-01-22T13:23:46.893Z,74.83
2023-01-22T13:26:22.861Z,75.14
2023-01-22T13:28:55.022Z,74.83
2023-01-22T13:31:21.897Z,74.71
2023-01-22T13:34:08.866Z,74.97
2023-01-22T13:36:43.975Z,75.15
2023-01-22T13:39:31.567Z,74.85
2023-01-22T13:42:01.485Z,75.38
2023-01-22T13:44:39.669Z,75.34
2023-01-22T13:47:06.924Z,75.18
2023-01-22T13:49:41.331Z,75.07
2023-01-22T13:52:15.422Z,74.81
2023-01-22T13:54:47.214Z,75.13
2023-01-22T13:57:17.102Z,74.88
2023-01-22T14:00:01.223Z,75.70
2023-01-22T14:02:29.561Z,75.66
2023-01-22T14:04:56.725Z,75.42
2023-01-22T14:07:29.086Z,75.44
2023-01-22T14:09:57.188Z,76.06
2023-01-22T14:12:26.840Z,75.65
2023-01-22T14:14:54.903Z,75.61
2023-01-22T14:17:28.932Z,75.17
2023-01-22T14:19:58.999Z,76.06
2023-01-22T14:22:26.232Z,76.17
2023-01-22T14:24:53.708Z,75.77
2023-01-22T14:27:26.965Z,75.76
2023-01-22T14:29:57.171Z,75.59
2023-01-22T14:32:23.906Z,75.77
2023-01-22T14:34:50.598Z,75.76
2023-01-22T14:37:18.048Z,75.87
2023-01-22T14:39:44.865Z,76.22
2023-01-22T14:42:11.712Z,75.81
2023-01-22T14:44:38.430Z,76.59
2023-01-22T14:47:05.251Z,76.42
2023-01-22T14:49:32.594Z,76.93
2023-01-22T14:51:59.432Z,76.56
2023-01-22T14:54:26.186Z,76.45
2023-01-22T14:56:53.854Z,76.31
2023-01-22T14:59:20.992Z,76.02
2023-01-22T15:01:47.904Z,76.27
2023-01-22T15:04:14.634Z,76.74
2023-01-22T15:06:41.408Z,76.52
2023-01-22T15:09:08.160Z,76.38
2023-01-22T15:11:34.917Z,76.78
2023-01-22T15:14:03.574Z,76.45
2023-01-22T15:16:31.618Z,76.61
2023-01-22T15:18:58.466Z,76.38
2023-01-22T15:21:25.301Z,76.39
2023-01-22T15:23:52.067Z,76.91
2023-01-22T15:26:32.597Z,76.64
2023-01-22T15:28:59.538Z,76.41
2023-01-22T15:31:26.327Z,76.41
2023-01-22T15:33:53.593Z,76.66
2023-01-22T15:36:20.478Z,76.91
2023-01-22T15:38:47.438Z,76.91
2023-01-22T15:41:24.489Z,76.66
2023-01-22T15:43:52.809Z,77.35
2023-01-22T15:46:25.078Z,77.23
2023-01-22T15:48:52.747Z,76.54
2023-01-22T15:51:21.809Z,76.64
2023-01-22T15:53:54.474Z,77.13
2023-01-22T15:56:23.782Z,76.60
2023-01-22T15:58:51.081Z,76.93
2023-01-22T16:01:22.299Z,76.94
2023-01-22T16:03:49.540Z,76.63
2023-01-22T16:06:22.527Z,76.84
2023-01-22T16:08:50.873Z,76.54
2023-01-22T16:11:18.732Z,76.87
2023-01-22T16:13:45.853Z,77.22
2023-01-22T16:16:20.386Z,76.81
2023-01-22T16:18:48.783Z,76.60
2023-01-22T16:21:16.955Z,77.05
2023-01-22T16:23:45.897Z,76.75
2023-01-22T16:26:18.144Z,76.93
2023-01-22T16:28:46.893Z,77.15
2023-01-22T16:31:17.718Z,76.76
2023-01-22T16:33:47.286Z,77.24
2023-01-22T16:36:16.735Z,77.22
2023-01-22T16:38:43.420Z,77.30
2023-01-22T16:41:25.956Z,77.60
2023-01-22T16:43:56.245Z,76.80
2023-01-22T16:46:27.398Z,76.73
2023-01-22T16:49:11.876Z,77.24
2023-01-22T16:51:41.028Z,76.79
2023-01-22T16:54:08.341Z,76.69
2023-01-22T16:56:35.280Z,76.79
2023-01-22T16:59:02.298Z,76.96
2023-01-22T17:01:30.518Z,77.61
2023-01-22T17:03:57.441Z,77.58
2023-01-22T17:06:29.958Z,77.30
2023-01-22T17:08:56.921Z,77.15
2023-01-22T17:11:23.957Z,77.08
2023-01-22T17:13:50.906Z,77.46
2023-01-22T17:16:18.728Z,76.88
2023-01-22T17:18:46.108Z,77.59
2023-01-22T17:21:16.221Z,77.03
2023-01-22T17:23:43.363Z,77.01
2023-01-22T17:26:13.275Z,77.59
2023-01-22T17:28:41.696Z,77.30
2023-01-22T17:31:11.042Z,76.65
2023-01-22T17:33:38.792Z,76.91
2023-01-22T17:36:06.425Z,77.57
2023-01-22T17:38:38.323Z,77.31
2023-01-22T17:41:14.455Z,77.15
2023-01-22T17:43:42.134Z,77.42
2023-01-22T17:46:11.454Z,77.41
2023-01-22T17:48:38.752Z,77.73
2023-01-22T17:51:08.534Z,77.76
2023-01-22T17:53:37.487Z,77.51
2023-01-22T17:56:09.188Z,77.63
2023-01-22T17:58:37.235Z,77.13
2023-01-22T18:01:07.864Z,76.99
2023-01-22T18:03:37.689Z,77.23
2023-01-22T18:06:05.373Z,77.58
2023-01-22T18:08:33.579Z,78.00
2023-01-22T18:11:05.474Z,77.34
2023-01-22T18:13:32.534Z,76.86
2023-01-22T18:15:59.401Z,77.37
2023-01-22T18:18:25.987Z,77.60
2023-01-22T18:20:52.832Z,77.44
2023-01-22T18:23:19.866Z,77.13
2023-01-22T18:25:50.454Z,76.97
2023-01-22T18:28:18.420Z,77.86
2023-01-22T18:30:46.874Z,77.66
2023-01-22T18:33:14.867Z,77.70
2023-01-22T18:35:43.188Z,77.82
2023-01-22T18:38:10.189Z,77.37
2023-01-22T18:40:37.251Z,77.10
2023-01-22T18:43:06.109Z,77.34
2023-01-22T18:45:40.625Z,77.73
2023-01-22T18:48:11.053Z,77.74
2023-01-22T18:50:38.153Z,77.54
2023-01-22T18:53:07.055Z,77.17
2023-01-22T18:55:34.904Z,77.40
2023-01-22T18:58:27.647Z,77.43
2023-01-22T19:00:59.773Z,77.25
2023-01-22T19:03:26.848Z,77.26
2023-01-22T19:05:54.669Z,77.21
2023-01-22T19:08:22.913Z,77.54
2023-01-22T19:10:49.746Z,76.79
2023-01-22T19:13:16.650Z,77.80
2023-01-22T19:15:43.895Z,77.57
2023-01-22T19:18:10.759Z,77.72
2023-01-22T19:20:37.865Z,77.58
2023-01-22T19:23:04.702Z,77.49
2023-01-22T19:25:32.557Z,77.28
2023-01-22T19:27:59.442Z,77.76
2023-01-22T19:30:26.359Z,77.93
2023-01-22T19:32:56.959Z,78.07
2023-01-22T19:35:24.115Z,77.40
2023-01-22T19:37:52.539Z,77.74
2023-01-22T19:40:21.856Z,77.48
2023-01-22T19:42:48.955Z,77.47
2023-01-22T19:45:15.769Z,77.69
2023-01-22T19:47:42.748Z,77.98
2023-01-22T19:50:10.269Z,77.77
2023-01-22T19:52:37.208Z,78.10
2023-01-22T19:55:04.177Z,78.20
2023-01-22T19:57:33.227Z,77.77
2023-01-22T20:00:34.919Z,78.12
2023-01-22T20:03:06.629Z,78.20
2023-01-22T20:05:41.082Z,78.12
2023-01-22T20:08:08.326Z,78.05
2023-01-22T20:10:37.339Z,77.85
2023-01-22T20:13:05.104Z,77.63
2023-01-22T20:15:37.662Z,78.34
2023-01-22T20:18:05.142Z,77.39
2023-01-22T20:20:31.949Z,77.54
2023-01-22T20:22:58.586Z,77.98
2023-01-22T20:25:25.724Z,77.58
2023-01-22T20:27:52.632Z,77.90
2023-01-22T20:30:20.218Z,77.99
2023-01-22T20:32:46.924Z,77.99
2023-01-22T20:35:15.573Z,78.17
2023-01-22T20:37:42.353Z,77.85
2023-01-22T20:40:09.863Z,78.29
2023-01-22T20:42:36.575Z,78.49
2023-01-22T20:45:04.278Z,78.38
2023-01-22T20:47:34.826Z,77.96
2023-01-22T20:50:01.798Z,78.28
2023-01-22T20:52:28.900Z,77.94
2023-01-22T20:55:01.968Z,77.85
2023-01-22T20:57:30.218Z,78.03
2023-01-22T20:59:56.922Z,78.38
2023-01-22T21:02:23.924Z,77.85
2023-01-22T21:04:52.650Z,77.80
2023-01-22T21:07:20.217Z,78.32
2023-01-22T21:09:46.986Z,78.39
2023-01-22T21:12:14.251Z,78.34
2023-01-22T21:14:41.411Z,78.05
2023-01-22T21:17:08.493Z,77.87
2023-01-22T21:19:36.715Z,78.06
2023-01-22T21:22:04.036Z,77.98
2023-01-22T21:24:31.139Z,77.97
2023-01-22T21:26:58.000Z,78.22
2023-01-22T21:29:24.854Z,78.44
2023-01-22T21:31:52.848Z,78.25
2023-01-22T21:34:22.193Z,78.13
2023-01-22T21:36:50.631Z,77.94
2023-01-22T21:39:19.736Z,78.09
2023-01-22T21:41:46.648Z,77.91
2023-01-22T21:44:33.813Z,77.98
2023-01-22T21:47:01.480Z,78.17
2023-01-22T21:49:28.533Z,78.39
2023-01-22T21:52:01.389Z,78.50
2023-01-22T21:54:36.488Z,77.94
2023-01-22T21:57:04.640Z,78.10
2023-01-22T21:59:31.698Z,77.99
2023-01-22T22:01:58.853Z,77.65
2023-01-22T22:04:27.153Z,78.11
2023-01-22T22:06:54.648Z,78.05
2023-01-22T22:09:24.155Z,78.55
2023-01-22T22:11:51.683Z,78.06
2023-01-22T22:14:22.348Z,78.11
2023-01-22T22:16:52.807Z,78.27
2023-01-22T22:19:21.044Z,78.37
2023-01-22T22:21:48.120Z,77.97
2023-01-22T22:24:15.887Z,77.65
2023-01-22T22:26:42.790Z,77.66
2023-01-22T22:29:10.302Z,78.08
2023-01-22T22:31:37.915Z,77.77
2023-01-22T22:34:05.116Z,77.64
2023-01-22T22:36:32.931Z,77.91
2023-01-22T22:39:01.266Z,78.03
2023-01-22T22:41:41.844Z,78.00
2023-01-22T22:44:10.269Z,77.96
2023-01-22T22:46:38.914Z,77.73
2023-01-22T22:49:06.166Z,78.16
2023-01-22T22:51:36.159Z,77.98
2023-01-22T22:54:07.705Z,78.24
2023-01-22T22:56:36.319Z,78.20
2023-01-22T22:59:07.848Z,78.06
2023-01-22T23:01:38.257Z,78.46
2023-01-22T23:04:06.123Z,78.71
2023-01-22T23:06:35.756Z,78.15
2023-01-22T23:09:10.987Z,78.66
2023-01-22T23:11:38.147Z,78.40
2023-01-22T23:14:05.463Z,78.92
2023-01-22T23:16:34.942Z,78.47
2023-01-22T23:19:04.484Z,78.80
2023-01-22T23:21:31.235Z,78.48
2023-01-22T23:23:58.033Z,79.17
2023-01-22T23:26:30.860Z,78.94
2023-01-22T23:29:00.670Z,78.75
2023-01-22T23:31:28.714Z,78.65
2023-01-22T23:33:56.869Z,79.20
2023-01-22T23:36:25.963Z,79.22
2023-01-22T23:38:53.939Z,78.90
2023-01-22T23:41:21.424Z,78.88
2023-01-22T23:43:48.944Z,79.09
2023-01-22T23:46:27.913Z,78.88
2023-01-22T23:48:57.092Z,78.20
2023-01-22T23:51:24.508Z,79.01
2023-01-22T23:53:53.170Z,78.71
2023-01-22T23:56:22.252Z,78.71
2023-01-22T23:58:49.363Z,79.13
